Time;durP1;ratioP1;P1;durP2;ratioP2;P2;SDS_P1;SDS_P2;PMS_P1;PMS_P2;Temp;Humidity;BMP_temperature;BMP_pressure;BME280_temperature;BME280_humidity;BME280_pressure;Samples;Min_cycle;Max_cycle;Signal;HPM_P1;HPM_P2
2022/08/18 00:02:05;;;;;;;8.73;7.93;;;23.90;99.90;;;;;;5030747;28;20629;-72
2022/08/18 00:04:31;;;;;;;7.90;7.00;;;23.90;99.90;;;;;;5030626;28;20186;-72
2022/08/18 00:06:58;;;;;;;9.20;7.33;;;23.80;99.90;;;;;;5030677;28;20463;-72
2022/08/18 00:09:23;;;;;;;7.93;6.50;;;23.80;99.90;;;;;;5030936;28;20414;-72
2022/08/18 00:11:49;;;;;;;10.60;7.10;;;23.80;99.90;;;;;;5031129;28;20437;-72
2022/08/18 00:14:18;;;;;;;8.27;7.40;;;23.80;99.90;;;;;;5030929;28;20188;-72
2022/08/18 00:16:44;;;;;;;8.27;7.47;;;23.80;99.90;;;;;;5028779;28;20194;-72
2022/08/18 00:19:10;;;;;;;7.67;6.90;;;23.80;99.90;;;;;;5031104;28;20394;-72
2022/08/18 00:21:35;;;;;;;8.13;7.43;;;23.70;99.90;;;;;;5030721;28;20210;-72
2022/08/18 00:24:01;;;;;;;7.70;7.00;;;23.70;99.90;;;;;;5030692;28;20275;-72
2022/08/18 00:26:27;;;;;;;6.90;6.33;;;23.70;99.90;;;;;;5030555;28;20252;-72
2022/08/18 00:28:52;;;;;;;11.73;8.40;;;23.70;99.90;;;;;;5031034;28;20182;-72
2022/08/18 00:31:18;;;;;;;8.47;7.60;;;23.70;99.90;;;;;;5030821;28;20206;-72
2022/08/18 00:33:43;;;;;;;8.17;7.37;;;23.70;99.90;;;;;;5030795;28;20168;-72
2022/08/18 00:36:10;;;;;;;7.67;6.93;;;23.70;99.90;;;;;;5030169;28;20182;-73
2022/08/18 00:38:37;;;;;;;7.50;6.90;;;23.70;99.90;;;;;;5030868;28;20269;-73
2022/08/18 00:41:03;;;;;;;8.40;7.60;;;23.70;99.90;;;;;;5030761;28;20952;-73
2022/08/18 00:43:38;;;;;;;7.70;7.00;;;23.70;99.90;;;;;;5030952;28;20409;-72
2022/08/18 00:46:13;;;;;;;6.53;5.93;;;23.70;99.90;;;;;;5030694;28;20435;-73
2022/08/18 00:48:38;;;;;;;7.10;6.50;;;23.70;99.90;;;;;;5030947;28;20745;-72
2022/08/18 00:51:14;;;;;;;7.50;6.83;;;23.70;99.90;;;;;;5030521;28;20435;-73
2022/08/18 00:53:46;;;;;;;8.13;7.43;;;23.70;99.90;;;;;;5029582;28;20165;-72
2022/08/18 00:56:23;;;;;;;6.77;6.07;;;23.70;99.90;;;;;;5030698;28;20408;-73
2022/08/18 00:58:59;;;;;;;7.03;6.33;;;23.60;99.90;;;;;;5030826;28;20435;-71
2022/08/18 01:01:29;;;;;;;8.57;7.67;;;23.60;99.90;;;;;;5030566;28;20424;-73
2022/08/18 01:04:01;;;;;;;7.50;6.80;;;23.60;99.90;;;;;;5030725;28;20830;-72
2022/08/18 01:06:40;;;;;;;9.00;7.50;;;23.50;99.90;;;;;;5030085;28;20449;-73
2022/08/18 01:09:07;;;;;;;7.60;6.90;;;23.50;99.90;;;;;;5030769;28;20435;-73
2022/08/18 01:11:35;;;;;;;10.00;8.33;;;23.50;99.90;;;;;;5030689;28;20428;-73
2022/08/18 01:14:02;;;;;;;8.83;7.30;;;23.50;99.90;;;;;;5030776;28;20415;-72
2022/08/18 01:22:03;;;;;;;7.03;6.40;;;23.60;99.90;;;;;;5032063;28;20430;-72
2022/08/18 01:27:18;;;;;;;9.40;8.10;;;23.60;99.90;;;;;;5034584;28;20443;-72
2022/08/18 01:29:48;;;;;;;7.17;6.57;;;23.50;99.90;;;;;;5034213;28;20436;-73
2022/08/18 01:32:20;;;;;;;7.40;6.60;;;23.60;99.90;;;;;;5034376;28;20509;-72
2022/08/18 01:34:48;;;;;;;7.07;6.37;;;23.60;99.90;;;;;;5033684;28;20444;-72
2022/08/18 01:37:23;;;;;;;8.20;7.40;;;23.60;99.90;;;;;;5034221;28;20411;-72
2022/08/18 01:39:49;;;;;;;7.73;7.03;;;23.60;99.90;;;;;;5034139;28;20767;-72
2022/08/18 01:42:16;;;;;;;7.97;7.27;;;23.60;99.90;;;;;;5034266;28;20447;-72
2022/08/18 01:44:43;;;;;;;7.40;6.70;;;23.60;99.90;;;;;;5033467;28;20412;-72
2022/08/18 01:47:10;;;;;;;11.03;7.53;;;23.60;99.90;;;;;;5033652;28;20547;-72
2022/08/18 01:49:37;;;;;;;6.40;5.80;;;23.60;99.90;;;;;;5033735;28;20521;-70
2022/08/18 01:52:06;;;;;;;7.87;6.10;;;23.60;99.90;;;;;;5033635;28;20431;-72
2022/08/18 01:54:31;;;;;;;7.40;6.70;;;23.60;99.90;;;;;;5033460;28;20405;-73
2022/08/18 01:56:57;;;;;;;7.50;6.80;;;23.60;99.90;;;;;;5033736;28;20413;-72
2022/08/18 01:59:23;;;;;;;7.83;6.57;;;23.70;99.90;;;;;;5033896;28;20965;-72
2022/08/18 02:01:51;;;;;;;7.20;6.50;;;23.60;99.90;;;;;;5033367;28;20564;-72
2022/08/18 02:04:17;;;;;;;7.83;6.87;;;23.60;99.90;;;;;;5033701;28;20170;-72
2022/08/18 02:06:43;;;;;;;7.90;7.20;;;23.60;99.90;;;;;;5032998;28;20548;-72
2022/08/18 02:09:09;;;;;;;7.73;6.73;;;23.60;99.90;;;;;;5033722;28;20448;-72
2022/08/18 02:11:34;;;;;;;7.37;6.63;;;23.60;99.90;;;;;;5033648;28;20204;-72
2022/08/18 02:14:00;;;;;;;7.00;6.40;;;23.60;99.90;;;;;;5033543;28;20884;-72
2022/08/18 02:16:26;;;;;;;7.67;6.60;;;23.60;99.90;;;;;;5033092;28;20178;-72
2022/08/18 02:18:52;;;;;;;6.87;6.17;;;23.60;99.90;;;;;;5033709;28;20209;-72
2022/08/18 02:21:20;;;;;;;8.40;6.50;;;23.60;99.90;;;;;;5033464;28;20256;-72
2022/08/18 02:23:47;;;;;;;7.93;7.13;;;23.50;99.90;;;;;;5033466;28;20412;-72
2022/08/18 02:26:15;;;;;;;7.40;6.70;;;23.50;99.90;;;;;;5032799;28;20462;-72
2022/08/18 02:28:41;;;;;;;7.50;6.70;;;23.50;99.90;;;;;;5033127;28;20435;-72
2022/08/18 02:31:13;;;;;;;8.73;6.63;;;23.50;99.90;;;;;;5032746;28;20805;-73
2022/08/18 02:33:39;;;;;;;9.00;7.40;;;23.40;99.90;;;;;;5033012;28;20510;-73
2022/08/18 02:36:06;;;;;;;7.63;6.17;;;23.50;99.90;;;;;;5032496;28;20410;-72
2022/08/18 02:38:32;;;;;;;7.40;6.50;;;23.40;99.90;;;;;;5031625;28;20438;-72
2022/08/18 02:41:00;;;;;;;9.90;7.13;;;23.50;99.90;;;;;;5032858;28;20436;-71
2022/08/18 02:43:27;;;;;;;7.07;6.47;;;23.40;99.90;;;;;;5032719;28;20526;-71
2022/08/18 02:45:53;;;;;;;9.80;8.27;;;23.40;99.90;;;;;;5032231;28;20921;-72
2022/08/18 02:48:36;;;;;;;6.70;6.10;;;23.30;99.90;;;;;;5032755;28;20479;-72
2022/08/18 02:51:09;;;;;;;10.30;7.57;;;23.30;99.90;;;;;;5030963;28;20437;-72
2022/08/18 02:53:36;;;;;;;7.30;6.53;;;23.30;99.90;;;;;;5032616;28;20426;-72
2022/08/18 02:56:31;;;;;;;7.80;7.10;;;23.20;99.90;;;;;;5032309;28;20405;-73
2022/08/18 02:59:06;;;;;;;8.80;7.50;;;23.20;99.90;;;;;;5023592;28;20417;-72
2022/08/18 03:01:37;;;;;;;8.03;7.20;;;23.20;99.90;;;;;;5032624;28;20562;-72
2022/08/18 03:04:05;;;;;;;7.80;7.10;;;23.20;99.90;;;;;;5032776;28;20423;-71
2022/08/18 03:06:31;;;;;;;8.03;6.80;;;23.20;99.90;;;;;;5032188;28;20452;-73
2022/08/18 03:08:57;;;;;;;8.23;7.43;;;23.20;99.90;;;;;;5032760;28;20412;-73
2022/08/18 03:11:26;;;;;;;8.03;7.23;;;23.10;99.90;;;;;;5033338;28;20431;-73
2022/08/18 03:13:52;;;;;;;7.33;6.70;;;23.10;99.90;;;;;;5032650;28;20594;-72
2022/08/18 03:16:18;;;;;;;7.80;7.00;;;23.10;99.90;;;;;;5032230;28;20500;-72
2022/08/18 03:18:45;;;;;;;7.73;6.60;;;23.00;99.90;;;;;;5032764;28;20211;-72
2022/08/18 03:21:14;;;;;;;8.80;7.97;;;23.00;99.90;;;;;;5032526;28;20429;-72
2022/08/18 03:23:41;;;;;;;10.63;7.87;;;23.00;99.90;;;;;;5032429;28;20528;-72
2022/08/18 03:26:10;;;;;;;8.70;7.90;;;23.00;99.90;;;;;;5031978;28;20475;-72
2022/08/18 03:28:37;;;;;;;8.50;7.70;;;22.90;99.90;;;;;;5032211;28;20901;-71
2022/08/18 03:31:03;;;;;;;8.60;7.17;;;22.90;99.90;;;;;;5032023;28;20452;-72
2022/08/18 03:33:28;;;;;;;8.73;7.57;;;22.90;99.90;;;;;;5032115;28;20408;-72
2022/08/18 03:35:54;;;;;;;7.73;6.93;;;22.80;99.90;;;;;;5031725;28;20221;-72
2022/08/18 03:38:19;;;;;;;7.33;6.63;;;22.80;99.90;;;;;;5031333;28;20167;-72
2022/08/18 03:40:52;;;;;;;8.13;7.37;;;22.80;99.90;;;;;;5032048;28;20191;-72
2022/08/18 03:43:18;;;;;;;7.93;7.10;;;22.80;99.90;;;;;;5032059;28;20180;-71
2022/08/18 03:45:44;;;;;;;9.83;7.60;;;22.70;99.90;;;;;;5031409;28;20492;-71
2022/08/18 03:48:09;;;;;;;8.47;7.13;;;22.70;99.90;;;;;;5031702;28;20181;-71
2022/08/18 03:50:36;;;;;;;8.77;7.90;;;22.70;99.90;;;;;;5031304;28;20268;-72
2022/08/18 03:53:03;;;;;;;7.37;6.73;;;22.60;99.90;;;;;;5031541;28;20214;-72
2022/08/18 03:55:30;;;;;;;7.87;7.07;;;22.60;99.90;;;;;;5031164;28;20437;-73
2022/08/18 03:58:02;;;;;;;8.03;7.23;;;22.60;99.90;;;;;;5031243;28;20463;-72
2022/08/18 04:00:32;;;;;;;7.97;7.23;;;22.60;99.90;;;;;;5031540;28;20435;-72
2022/08/18 04:03:01;;;;;;;9.67;7.80;;;22.60;99.90;;;;;;5031264;28;20433;-72
2022/08/18 04:05:28;;;;;;;7.67;6.93;;;22.60;99.90;;;;;;5031157;28;20901;-71
2022/08/18 04:07:55;;;;;;;8.93;7.93;;;22.60;99.90;;;;;;5031107;28;20515;-72
2022/08/18 04:10:22;;;;;;;8.33;7.63;;;22.50;99.90;;;;;;5031149;28;20480;-71
2022/08/18 04:12:47;;;;;;;8.07;7.37;;;22.70;99.90;;;;;;5031206;28;20469;-73
2022/08/18 04:15:13;;;;;;;11.80;8.47;;;22.70;99.90;;;;;;5031303;28;20846;-72
2022/08/18 04:17:38;;;;;;;7.97;7.17;;;22.80;99.90;;;;;;5031283;28;20184;-75
2022/08/18 04:20:05;;;;;;;9.20;7.60;;;22.90;99.90;;;;;;5031380;28;20190;-72
2022/08/18 04:22:32;;;;;;;8.90;8.13;;;22.90;99.90;;;;;;5031320;28;20201;-72
2022/08/18 04:25:02;;;;;;;9.40;8.50;;;22.90;99.90;;;;;;5031281;28;20471;-72
2022/08/18 04:27:28;;;;;;;9.40;8.40;;;22.90;99.90;;;;;;5030935;28;20458;-72
2022/08/18 04:29:55;;;;;;;8.10;7.30;;;22.90;99.90;;;;;;5030822;28;20412;-72
2022/08/18 04:32:22;;;;;;;8.30;7.50;;;22.90;99.90;;;;;;5031150;28;20403;-72
2022/08/18 04:34:48;;;;;;;8.97;8.07;;;22.90;99.90;;;;;;5030578;28;20424;-70
2022/08/18 04:37:14;;;;;;;8.97;8.07;;;23.00;99.90;;;;;;5030890;28;20412;-71
2022/08/18 04:39:40;;;;;;;8.70;7.80;;;23.00;99.90;;;;;;5031086;28;20663;-71
2022/08/18 04:42:06;;;;;;;11.00;7.57;;;23.00;99.90;;;;;;5030603;28;20468;-71
2022/08/18 04:44:33;;;;;;;8.57;7.73;;;23.10;99.90;;;;;;5030731;28;20448;-72
2022/08/18 04:47:00;;;;;;;8.40;7.70;;;23.10;99.90;;;;;;5027627;28;20454;-73
2022/08/18 04:49:26;;;;;;;13.00;7.80;;;23.10;99.90;;;;;;5031216;28;20836;-71
2022/08/18 04:54:38;;;;;;;9.67;8.47;;;23.10;99.90;;;;;;5031719;28;20911;-71
2022/08/18 04:57:16;;;;;;;9.40;8.37;;;23.10;99.90;;;;;;5030046;28;20421;-72
2022/08/18 04:59:48;;;;;;;10.47;8.67;;;23.20;99.90;;;;;;5030357;28;20494;-72
2022/08/18 05:02:15;;;;;;;8.60;7.80;;;23.30;99.90;;;;;;5030475;28;20433;-73
2022/08/18 05:04:45;;;;;;;7.40;6.77;;;23.40;99.90;;;;;;5031070;28;20436;-72
2022/08/18 05:07:13;;;;;;;9.27;8.40;;;23.40;99.90;;;;;;5010974;28;20458;-72
2022/08/18 05:09:40;;;;;;;9.03;8.20;;;23.50;99.90;;;;;;5010859;28;20406;-72
2022/08/18 05:12:07;;;;;;;8.93;8.10;;;23.60;99.90;;;;;;5010817;28;20458;-72
2022/08/18 05:14:34;;;;;;;10.37;8.60;;;23.70;99.90;;;;;;5020908;28;20428;-72
2022/08/18 05:17:02;;;;;;;7.87;7.27;;;23.70;99.90;;;;;;5030441;28;20733;-70
2022/08/18 05:19:29;;;;;;;8.97;8.07;;;23.70;99.90;;;;;;5030784;28;20510;-72
2022/08/18 05:21:56;;;;;;;8.90;8.00;;;23.50;99.90;;;;;;5030446;28;20442;-71
2022/08/18 05:24:23;;;;;;;9.77;8.10;;;23.60;99.90;;;;;;5030474;28;20413;-72
2022/08/18 05:26:51;;;;;;;9.43;7.40;;;23.70;99.90;;;;;;5030290;28;20537;-71
2022/08/18 05:29:19;;;;;;;8.60;7.80;;;23.80;99.90;;;;;;5030522;28;20416;-71
2022/08/18 05:31:49;;;;;;;7.77;6.97;;;23.70;99.90;;;;;;5076496;23;20557;-74
2022/08/18 05:34:16;;;;;;;7.63;7.03;;;23.80;99.90;;;;;;5053854;28;20979;-74
2022/08/18 05:36:48;;;;;;;8.50;7.80;;;23.80;99.90;;;;;;5053107;28;20411;-74
2022/08/18 05:39:16;;;;;;;10.20;9.20;;;23.70;99.90;;;;;;5052942;28;20466;-73
2022/08/18 05:42:00;;;;;;;8.20;7.40;;;23.80;99.90;;;;;;5035879;28;20428;-74
2022/08/18 05:44:28;;;;;;;10.90;8.37;;;23.90;99.90;;;;;;5054041;28;20464;-74
2022/08/18 05:46:58;;;;;;;9.03;8.10;;;23.80;99.90;;;;;;5053481;28;21029;-74
2022/08/18 05:49:25;;;;;;;8.80;7.70;;;24.00;99.90;;;;;;5053607;28;20399;-73
2022/08/18 05:52:12;;;;;;;9.67;8.80;;;23.90;99.90;;;;;;5053985;28;20426;-73
2022/08/18 05:57:33;;;;;;;7.97;7.20;;;24.30;99.90;;;;;;5054454;28;20417;-73
2022/08/18 05:59:59;;;;;;;8.07;7.37;;;24.50;99.90;;;;;;5054349;28;20414;-73
2022/08/18 06:02:33;;;;;;;8.53;7.73;;;24.40;99.90;;;;;;5057757;28;20510;-74
2022/08/18 06:05:10;;;;;;;9.20;7.57;;;24.60;99.90;;;;;;5057940;28;20392;-74
2022/08/18 06:07:36;;;;;;;7.93;7.23;;;24.80;99.90;;;;;;5057216;28;20479;-74
2022/08/18 06:10:05;;;;;;;10.73;9.73;;;24.90;99.90;;;;;;5057435;28;20412;-74
2022/08/18 06:12:35;;;;;;;9.63;8.63;;;24.90;99.90;;;;;;5039068;28;20194;-74
2022/08/18 06:15:20;;;;;;;10.83;9.73;;;25.20;99.90;;;;;;5057081;28;20774;-74
2022/08/18 06:17:55;;;;;;;9.50;8.50;;;25.90;99.90;;;;;;5036019;28;20413;-74
2022/08/18 06:20:59;;;;;;;9.80;8.20;;;26.10;99.90;;;;;;5056429;28;20957;-74
2022/08/18 06:23:54;;;;;;;9.00;8.10;;;25.80;99.90;;;;;;5057156;28;20498;-74
2022/08/18 06:26:41;;;;;;;8.80;8.00;;;26.00;99.90;;;;;;5056743;28;20483;-75
2022/08/18 06:29:46;;;;;;;9.03;8.10;;;26.30;99.90;;;;;;5057114;28;20394;-74
2022/08/18 06:32:29;;;;;;;7.87;6.93;;;26.30;99.90;;;;;;5056270;28;20451;-74
2022/08/18 06:35:05;;;;;;;9.33;7.40;;;26.50;99.90;;;;;;5056401;28;20401;-73
2022/08/18 06:41:15;;;;;;;8.67;7.97;;;26.70;99.90;;;;;;5033376;28;20424;-74
2022/08/18 06:44:02;;;;;;;9.10;7.23;;;26.60;99.90;;;;;;5056771;28;20846;-74
2022/08/18 06:46:57;;;;;;;10.10;7.33;;;26.90;99.90;;;;;;5056012;28;20974;-74
2022/08/18 06:49:22;;;;;;;9.93;8.97;;;26.80;99.90;;;;;;5037498;28;20496;-74
2022/08/18 06:51:48;;;;;;;8.83;8.00;;;26.70;99.90;;;;;;5055767;28;20438;-74
2022/08/18 06:54:16;;;;;;;8.63;7.90;;;26.50;99.90;;;;;;5056737;28;20162;-74
2022/08/18 06:56:42;;;;;;;7.77;7.00;;;26.60;99.90;;;;;;5056125;28;20163;-74
2022/08/18 06:59:19;;;;;;;9.13;8.23;;;26.60;99.90;;;;;;5056666;28;20619;-74
2022/08/18 07:01:47;;;;;;;10.40;9.50;;;26.60;99.90;;;;;;5056695;28;20189;-74
2022/08/18 07:04:38;;;;;;;10.33;9.30;;;26.60;99.90;;;;;;5055804;28;20408;-73
2022/08/18 07:07:16;;;;;;;8.40;7.70;;;26.70;99.90;;;;;;5026122;28;20476;-74
2022/08/18 07:09:41;;;;;;;9.47;8.60;;;26.70;99.90;;;;;;5036757;28;20764;-74
2022/08/18 07:12:09;;;;;;;11.40;7.80;;;26.60;99.90;;;;;;5035040;28;20500;-74
2022/08/18 07:14:54;;;;;;;9.17;7.87;;;26.60;99.90;;;;;;5036002;28;20183;-74
2022/08/18 07:17:28;;;;;;;8.90;8.00;;;26.60;99.90;;;;;;5036269;28;20417;-74
2022/08/18 07:19:56;;;;;;;9.70;8.70;;;26.90;99.90;;;;;;5040126;28;20413;-73
2022/08/18 07:22:22;;;;;;;8.87;7.60;;;26.90;99.90;;;;;;5050684;28;20447;-73
2022/08/18 07:24:53;;;;;;;9.33;8.40;;;26.90;99.90;;;;;;5041667;28;20417;-73
2022/08/18 07:27:40;;;;;;;8.97;7.53;;;26.90;99.90;;;;;;5076193;28;20190;-73
2022/08/18 07:30:28;;;;;;;8.67;7.70;;;26.80;99.90;;;;;;5076145;28;20396;-73
2022/08/18 07:33:08;;;;;;;9.70;8.60;;;26.90;99.90;;;;;;5075817;28;20452;-73
2022/08/18 07:35:48;;;;;;;9.23;8.33;;;27.00;99.90;;;;;;5057994;28;20475;-73
2022/08/18 07:38:50;;;;;;;9.00;7.83;;;26.70;99.90;;;;;;5075877;28;20778;-73
2022/08/18 07:41:24;;;;;;;12.37;8.20;;;26.60;99.90;;;;;;5058243;28;20814;-73
2022/08/18 07:44:04;;;;;;;9.97;8.97;;;26.70;99.90;;;;;;5074541;28;20387;-73
2022/08/18 07:46:42;;;;;;;11.60;8.87;;;26.90;99.90;;;;;;5071147;28;20809;-72
2022/08/18 07:49:09;;;;;;;9.63;8.20;;;26.80;99.90;;;;;;5052236;28;20412;-73
2022/08/18 07:51:43;;;;;;;9.77;7.77;;;26.60;99.90;;;;;;5055367;28;20962;-74
2022/08/18 07:54:19;;;;;;;8.90;8.10;;;26.90;99.90;;;;;;5056400;28;20472;-74
2022/08/18 07:57:08;;;;;;;9.37;8.40;;;27.30;99.90;;;;;;5055755;28;20426;-74
2022/08/18 07:59:47;;;;;;;10.47;8.63;;;27.00;99.90;;;;;;5055955;28;20414;-73
2022/08/18 08:02:15;;;;;;;8.80;8.00;;;26.90;99.90;;;;;;5055478;28;20429;-73
2022/08/18 08:05:07;;;;;;;11.23;8.87;;;26.90;99.90;;;;;;5058576;28;20412;-74
2022/08/18 08:07:44;;;;;;;8.63;7.73;;;26.90;99.90;;;;;;5050730;28;20462;-73
2022/08/18 08:10:29;;;;;;;10.33;7.80;;;27.10;99.90;;;;;;5061490;28;20487;-74
2022/08/18 08:13:29;;;;;;;11.00;9.00;;;27.30;99.90;;;;;;5057709;28;20817;-73
2022/08/18 08:16:08;;;;;;;11.93;9.37;;;27.10;99.90;;;;;;5054696;28;20423;-73
2022/08/18 08:19:10;;;;;;;9.03;7.30;;;27.30;99.90;;;;;;5054999;28;20401;-73
2022/08/18 08:21:46;;;;;;;8.63;7.77;;;27.30;99.90;;;;;;5054554;28;20423;-73
2022/08/18 08:24:40;;;;;;;9.83;8.87;;;27.50;99.90;;;;;;5036517;28;20397;-73
2022/08/18 08:27:13;;;;;;;9.80;7.93;;;27.90;99.90;;;;;;5037917;28;20479;-73
2022/08/18 08:29:57;;;;;;;8.43;7.03;;;27.90;99.90;;;;;;5055502;28;20417;-73
2022/08/18 08:32:40;;;;;;;9.00;8.10;;;27.40;99.90;;;;;;5055536;28;20508;-73
2022/08/18 08:35:25;;;;;;;9.40;7.60;;;27.20;99.90;;;;;;5056704;28;20429;-73
2022/08/18 08:37:59;;;;;;;9.73;8.17;;;27.30;99.90;;;;;;5056310;28;20806;-74
2022/08/18 08:40:37;;;;;;;9.03;8.13;;;27.70;99.90;;;;;;5055490;28;20436;-74
2022/08/18 08:43:10;;;;;;;10.07;8.60;;;27.60;99.90;;;;;;5055785;28;20423;-74
2022/08/18 08:45:43;;;;;;;8.67;7.87;;;27.50;99.90;;;;;;5055273;28;20497;-74
2022/08/18 08:48:28;;;;;;;9.23;8.20;;;27.60;99.90;;;;;;5055498;28;20510;-74
2022/08/18 08:50:56;;;;;;;9.00;8.20;;;27.70;99.90;;;;;;5057755;28;20420;-74
2022/08/18 08:53:33;;;;;;;9.47;8.50;;;28.20;99.90;;;;;;5076065;28;20419;-74
2022/08/18 08:56:05;;;;;;;12.33;9.40;;;28.50;99.90;;;;;;5058431;28;20543;-74
2022/08/18 08:58:41;;;;;;;9.37;8.53;;;28.40;99.90;;;;;;5070140;28;20423;-74
2022/08/18 09:01:15;;;;;;;9.57;8.67;;;27.90;99.90;;;;;;5074355;28;20420;-73
2022/08/18 09:03:52;;;;;;;9.73;8.20;;;27.90;99.90;;;;;;5074110;28;20392;-74
2022/08/18 09:06:45;;;;;;;9.63;8.73;;;28.40;99.90;;;;;;5074072;28;20953;-74
2022/08/18 09:09:35;;;;;;;8.60;7.80;;;28.60;99.90;;;;;;5071558;28;20802;-74
2022/08/18 09:12:19;;;;;;;9.80;8.90;;;28.30;99.90;;;;;;5055657;28;20433;-74
2022/08/18 09:15:12;;;;;;;9.33;8.50;;;28.30;99.90;;;;;;5054000;28;20492;-74
2022/08/18 09:18:04;;;;;;;9.73;8.70;;;28.20;99.90;;;;;;5054042;28;20512;-74
2022/08/18 09:20:52;;;;;;;9.80;8.80;;;28.30;99.90;;;;;;5054343;28;20401;-73
2022/08/18 09:23:24;;;;;;;14.53;8.73;;;29.10;99.90;;;;;;5054904;28;20484;-72
2022/08/18 09:26:01;;;;;;;9.40;8.60;;;29.00;99.90;;;;;;5054102;28;20495;-74
2022/08/18 09:28:26;;;;;;;20.63;17.13;;;29.10;99.90;;;;;;5054493;28;20409;-74
2022/08/18 09:31:04;;;;;;;10.30;9.30;;;29.50;99.90;;;;;;5054435;28;21009;-74
2022/08/18 09:33:56;;;;;;;10.17;8.50;;;29.10;99.90;;;;;;5054144;28;20162;-74
2022/08/18 09:36:47;;;;;;;13.50;8.67;;;29.30;99.90;;;;;;5056646;28;20895;-74
2022/08/18 09:42:14;;;;;;;8.50;7.70;;;30.20;99.90;;;;;;5058598;28;20498;-74
2022/08/18 09:44:40;;;;;;;12.13;8.00;;;29.80;99.50;;;;;;5058486;28;20428;-75
2022/08/18 09:47:07;;;;;;;8.70;7.90;;;29.90;98.90;;;;;;5058324;28;20498;-72
2022/08/18 09:49:45;;;;;;;7.77;6.97;;;29.90;99.10;;;;;;5040122;28;20266;-73
2022/08/18 09:52:19;;;;;;;9.47;7.87;;;30.50;98.80;;;;;;5058263;28;20429;-73
2022/08/18 09:54:57;;;;;;;7.80;7.10;;;31.30;96.80;;;;;;5057599;28;20419;-73
2022/08/18 09:57:27;;;;;;;8.37;7.57;;;31.20;96.40;;;;;;5058391;28;20909;-73
2022/08/18 09:59:58;;;;;;;8.73;7.57;;;30.40;96.40;;;;;;5058700;28;20409;-73
2022/08/18 10:02:30;;;;;;;7.63;7.03;;;30.30;96.50;;;;;;5040089;28;20813;-73
2022/08/18 10:05:14;;;;;;;8.03;7.03;;;30.60;96.40;;;;;;5058151;28;20411;-73
2022/08/18 10:07:52;;;;;;;8.50;7.73;;;30.60;95.90;;;;;;5058662;28;20449;-73
2022/08/18 10:10:43;;;;;;;10.30;7.10;;;30.40;95.50;;;;;;5051517;28;20405;-73
2022/08/18 10:13:25;;;;;;;9.00;6.90;;;31.20;94.40;;;;;;5059480;28;20390;-73
2022/08/18 10:16:14;;;;;;;7.13;6.43;;;31.40;93.70;;;;;;5059715;28;20758;-74
2022/08/18 10:18:48;;;;;;;10.27;9.30;;;31.10;94.80;;;;;;5060871;28;20405;-74
2022/08/18 10:21:26;;;;;;;9.10;8.40;;;31.30;95.10;;;;;;5059999;28;20422;-73
2022/08/18 10:24:03;;;;;;;8.87;8.00;;;31.80;93.60;;;;;;5062073;28;20413;-73
2022/08/18 10:26:29;;;;;;;7.13;6.43;;;31.30;93.60;;;;;;5058812;28;20476;-73
2022/08/18 10:29:05;;;;;;;8.23;6.20;;;31.70;92.80;;;;;;5058790;28;20417;-73
2022/08/18 10:31:53;;;;;;;7.43;6.73;;;31.40;93.70;;;;;;5058320;28;20455;-73
2022/08/18 10:34:38;;;;;;;6.87;6.37;;;31.40;93.20;;;;;;5058202;28;20849;-73
2022/08/18 10:37:19;;;;;;;8.40;7.23;;;31.00;94.10;;;;;;5058417;28;20429;-74
2022/08/18 10:39:49;;;;;;;7.23;6.60;;;30.80;94.30;;;;;;5058390;28;20452;-74
2022/08/18 10:42:30;;;;;;;46.80;35.67;;;30.80;95.00;;;;;;5057773;28;20429;-73
2022/08/18 10:45:19;;;;;;;10.03;8.20;;;30.90;94.60;;;;;;5057621;28;20405;-74
2022/08/18 10:48:04;;;;;;;7.87;7.27;;;31.30;93.30;;;;;;5057434;28;20486;-74
2022/08/18 10:50:45;;;;;;;12.40;8.37;;;31.70;92.60;;;;;;5058277;28;20425;-74
2022/08/18 10:53:30;;;;;;;9.03;8.17;;;32.30;91.50;;;;;;5059143;28;20389;-74
2022/08/18 10:56:10;;;;;;;10.50;9.47;;;32.20;91.50;;;;;;5060847;28;20397;-74
2022/08/18 10:59:00;;;;;;;9.53;8.30;;;31.80;91.80;;;;;;5058761;28;20401;-73
2022/08/18 11:02:02;;;;;;;10.27;9.27;;;32.00;91.60;;;;;;5057450;28;20451;-73
2022/08/18 11:04:42;;;;;;;8.43;7.63;;;32.10;91.90;;;;;;5057426;28;20421;-73
2022/08/18 11:07:26;;;;;;;9.03;8.13;;;32.30;90.80;;;;;;5058706;28;21083;-74
2022/08/18 11:09:56;;;;;;;7.90;7.17;;;32.50;89.40;;;;;;5060942;28;20425;-73
2022/08/18 11:12:38;;;;;;;7.67;7.07;;;32.50;87.80;;;;;;5061072;28;20848;-73
2022/08/18 11:15:12;;;;;;;12.10;7.60;;;32.40;88.30;;;;;;5062319;28;20432;-73
2022/08/18 11:18:07;;;;;;;8.23;7.50;;;31.90;88.40;;;;;;5058665;28;20393;-73
2022/08/18 11:20:32;;;;;;;9.50;7.17;;;32.00;88.00;;;;;;5044297;28;20450;-73
2022/08/18 11:23:01;;;;;;;7.77;7.10;;;31.70;87.40;;;;;;5048417;28;20414;-73
2022/08/18 11:25:31;;;;;;;10.60;7.00;;;31.80;87.40;;;;;;5046300;28;20175;-74
2022/08/18 11:27:58;;;;;;;7.83;7.23;;;31.90;88.20;;;;;;5045400;28;20465;-73
2022/08/18 11:30:30;;;;;;;6.80;6.00;;;32.40;85.10;;;;;;5045722;28;20779;-74
2022/08/18 11:32:59;;;;;;;7.47;6.77;;;32.30;83.90;;;;;;5071545;22;20528;-71
2022/08/18 11:35:46;;;;;;;7.03;6.17;;;32.60;83.20;;;;;;5040206;28;20471;-71
2022/08/18 11:38:13;;;;;;;6.80;6.20;;;32.60;82.10;;;;;;5034123;28;20776;-71
2022/08/18 11:40:49;;;;;;;8.80;6.80;;;32.70;82.00;;;;;;5052104;28;20402;-71
2022/08/18 11:43:26;;;;;;;6.17;5.67;;;32.50;82.80;;;;;;5052188;28;20428;-71
2022/08/18 11:46:09;;;;;;;8.90;6.60;;;32.30;82.40;;;;;;5051446;28;20915;-71
2022/08/18 11:48:37;;;;;;;7.07;6.43;;;32.70;81.30;;;;;;5052171;28;20555;-72
2022/08/18 11:51:16;;;;;;;7.17;6.20;;;32.90;79.70;;;;;;5051542;28;20412;-72
2022/08/18 11:54:11;;;;;;;5.90;5.30;;;32.60;80.80;;;;;;5031835;28;20715;-72
2022/08/18 11:56:37;;;;;;;6.03;5.53;;;32.80;80.20;;;;;;4996189;28;20441;-72
2022/08/18 11:59:34;;;;;;;5.80;5.30;;;32.80;76.30;;;;;;5045728;28;20899;-71
2022/08/18 12:02:00;;;;;;;6.47;5.97;;;32.80;77.80;;;;;;5051621;28;20273;-71
2022/08/18 12:04:36;;;;;;;14.47;11.13;;;33.30;76.30;;;;;;5051764;28;20413;-71
2022/08/18 12:07:15;;;;;;;22.50;19.80;;;33.10;75.80;;;;;;5032030;28;20451;-71
2022/08/18 12:09:45;;;;;;;24.47;20.63;;;33.60;73.80;;;;;;5050783;28;20405;-71
2022/08/18 12:12:21;;;;;;;35.00;27.80;;;33.50;73.00;;;;;;5051390;28;20468;-71
2022/08/18 12:15:20;;;;;;;6.77;6.10;;;33.60;72.40;;;;;;5051438;28;20405;-72
2022/08/18 12:17:46;;;;;;;7.23;6.53;;;33.20;70.90;;;;;;5007897;28;20727;-72
2022/08/18 12:20:13;;;;;;;5.83;4.73;;;33.30;73.80;;;;;;5051534;28;20408;-72
2022/08/18 12:22:42;;;;;;;5.60;5.13;;;33.40;73.50;;;;;;5051551;28;20435;-72
2022/08/18 12:25:13;;;;;;;8.70;6.90;;;33.60;72.60;;;;;;5033303;28;20417;-72
2022/08/18 12:27:40;;;;;;;6.40;5.80;;;33.40;74.20;;;;;;5049540;28;20453;-72
2022/08/18 12:30:07;;;;;;;6.53;5.27;;;33.60;71.50;;;;;;5050667;28;20420;-72
2022/08/18 12:32:34;;;;;;;6.20;5.60;;;33.70;72.20;;;;;;5050835;28;20837;-72
2022/08/18 12:35:01;;;;;;;6.20;5.63;;;33.60;70.30;;;;;;5032481;28;20473;-72
2022/08/18 12:37:28;;;;;;;5.57;5.17;;;33.20;71.40;;;;;;5050994;28;20402;-71
2022/08/18 12:39:56;;;;;;;6.40;5.40;;;33.60;71.70;;;;;;5050733;28;20441;-71
2022/08/18 12:42:22;;;;;;;5.30;4.80;;;33.90;71.00;;;;;;5050804;28;20860;-72
2022/08/18 12:44:48;;;;;;;8.90;6.50;;;33.50;70.60;;;;;;5050705;28;20436;-72
2022/08/18 12:47:17;;;;;;;5.93;5.43;;;33.60;71.40;;;;;;5051002;28;20186;-71
2022/08/18 12:49:43;;;;;;;6.40;5.90;;;33.50;72.10;;;;;;5050698;28;20665;-71
2022/08/18 12:52:09;;;;;;;6.90;6.40;;;33.80;73.10;;;;;;5032865;28;20491;-72
2022/08/18 12:54:34;;;;;;;6.87;6.17;;;33.10;74.00;;;;;;5050341;28;20167;-72
2022/08/18 12:57:04;;;;;;;7.77;7.00;;;33.30;75.10;;;;;;5050502;28;20163;-71
2022/08/18 12:59:29;;;;;;;7.40;6.70;;;33.60;75.60;;;;;;5050469;28;20175;-71
2022/08/18 13:01:55;;;;;;;6.70;6.00;;;33.80;75.40;;;;;;5050425;28;20785;-71
2022/08/18 13:04:20;;;;;;;6.90;5.93;;;34.00;71.40;;;;;;5050339;28;20679;-72
2022/08/18 13:06:49;;;;;;;5.90;5.40;;;34.00;71.60;;;;;;5049927;28;20252;-72
2022/08/18 13:09:15;;;;;;;6.47;5.87;;;33.80;72.80;;;;;;5050387;28;20159;-72
2022/08/18 13:11:41;;;;;;;7.63;6.73;;;33.60;74.20;;;;;;5053854;28;20449;-72
2022/08/18 13:14:07;;;;;;;6.50;5.90;;;33.70;73.90;;;;;;5054384;28;20432;-72
2022/08/18 13:16:35;;;;;;;6.83;6.23;;;33.90;74.50;;;;;;5054329;28;20300;-71
2022/08/18 13:19:00;;;;;;;6.50;5.90;;;34.00;74.40;;;;;;5054527;28;20405;-71
2022/08/18 13:21:27;;;;;;;7.63;6.70;;;33.90;74.40;;;;;;5054247;28;20462;-72
2022/08/18 13:23:53;;;;;;;7.70;6.10;;;33.80;74.80;;;;;;5054581;28;20166;-72
2022/08/18 13:26:30;;;;;;;6.37;5.77;;;33.80;73.80;;;;;;5053975;28;20413;-71
2022/08/18 13:28:58;;;;;;;6.60;6.10;;;33.80;72.90;;;;;;5054296;28;20488;-71
2022/08/18 13:31:25;;;;;;;8.47;6.00;;;33.80;73.10;;;;;;5054396;28;20401;-72
2022/08/18 13:33:51;;;;;;;6.40;5.80;;;33.60;73.40;;;;;;5054195;28;20421;-72
2022/08/18 13:36:17;;;;;;;6.70;6.20;;;33.70;73.10;;;;;;5053646;28;20429;-72